sensor_id;sensor_type;location;lat;lon;timestamp;P1;durP1;ratioP1;P2;durP2;ratioP2
66112;SDS011;52893;52.870;5.822;2022-11-15T00:01:36;24.88;;;12.57;;
66112;SDS011;52893;52.870;5.822;2022-11-15T00:04:23;18.92;;;10.65;;
66112;SDS011;52893;52.870;5.822;2022-11-15T00:07:09;27.38;;;12.57;;
66112;SDS011;52893;52.870;5.822;2022-11-15T00:09:55;26.00;;;12.73;;
66112;SDS011;52893;52.870;5.822;2022-11-15T00:12:41;27.77;;;14.20;;
66112;SDS011;52893;52.870;5.822;2022-11-15T00:15:27;30.20;;;13.77;;
66112;SDS011;52893;52.870;5.822;2022-11-15T00:18:13;32.30;;;16.13;;
66112;SDS011;52893;52.870;5.822;2022-11-15T00:21:04;23.40;;;10.70;;
66112;SDS011;52893;52.870;5.822;2022-11-15T00:23:52;29.88;;;13.93;;
66112;SDS011;52893;52.870;5.822;2022-11-15T00:26:38;29.90;;;14.90;;
66112;SDS011;52893;52.870;5.822;2022-11-15T00:29:24;34.83;;;16.63;;
66112;SDS011;52893;52.870;5.822;2022-11-15T00:32:10;35.42;;;14.68;;
66112;SDS011;52893;52.870;5.822;2022-11-15T00:34:55;30.02;;;14.43;;
66112;SDS011;52893;52.870;5.822;2022-11-15T00:37:41;35.05;;;15.25;;
66112;SDS011;52893;52.870;5.822;2022-11-15T00:40:28;32.60;;;16.45;;
66112;SDS011;52893;52.870;5.822;2022-11-15T00:43:14;31.35;;;16.10;;
66112;SDS011;52893;52.870;5.822;2022-11-15T00:46:00;36.70;;;17.55;;
66112;SDS011;52893;52.870;5.822;2022-11-15T00:48:47;27.70;;;13.10;;
66112;SDS011;52893;52.870;5.822;2022-11-15T00:51:33;26.75;;;13.90;;
66112;SDS011;52893;52.870;5.822;2022-11-15T00:54:19;33.53;;;15.57;;
66112;SDS011;52893;52.870;5.822;2022-11-15T00:57:06;30.27;;;14.85;;
66112;SDS011;52893;52.870;5.822;2022-11-15T00:59:51;34.60;;;16.65;;
66112;SDS011;52893;52.870;5.822;2022-11-15T01:02:37;31.23;;;15.98;;
66112;SDS011;52893;52.870;5.822;2022-11-15T01:05:23;33.53;;;16.30;;
66112;SDS011;52893;52.870;5.822;2022-11-15T01:08:11;33.50;;;16.45;;
66112;SDS011;52893;52.870;5.822;2022-11-15T01:11:00;32.25;;;15.35;;
66112;SDS011;52893;52.870;5.822;2022-11-15T01:13:48;28.48;;;13.98;;
66112;SDS011;52893;52.870;5.822;2022-11-15T01:16:33;32.70;;;16.42;;
66112;SDS011;52893;52.870;5.822;2022-11-15T01:19:19;28.98;;;15.55;;
66112;SDS011;52893;52.870;5.822;2022-11-15T01:22:05;33.50;;;14.93;;
66112;SDS011;52893;52.870;5.822;2022-11-15T01:24:51;36.08;;;15.98;;
66112;SDS011;52893;52.870;5.822;2022-11-15T01:27:37;36.80;;;16.35;;
66112;SDS011;52893;52.870;5.822;2022-11-15T01:30:24;30.75;;;15.00;;
66112;SDS011;52893;52.870;5.822;2022-11-15T01:33:10;33.20;;;15.68;;
66112;SDS011;52893;52.870;5.822;2022-11-15T01:35:55;33.80;;;14.63;;
66112;SDS011;52893;52.870;5.822;2022-11-15T01:38:41;37.40;;;15.48;;
66112;SDS011;52893;52.870;5.822;2022-11-15T01:41:29;29.85;;;13.77;;
66112;SDS011;52893;52.870;5.822;2022-11-15T01:44:36;32.67;;;17.13;;
66112;SDS011;52893;52.870;5.822;2022-11-15T01:47:27;31.58;;;13.80;;
66112;SDS011;52893;52.870;5.822;2022-11-15T01:50:16;33.75;;;14.38;;
66112;SDS011;52893;52.870;5.822;2022-11-15T01:53:05;34.03;;;16.10;;
66112;SDS011;52893;52.870;5.822;2022-11-15T01:55:51;34.53;;;15.20;;
66112;SDS011;52893;52.870;5.822;2022-11-15T01:58:37;37.10;;;16.70;;
66112;SDS011;52893;52.870;5.822;2022-11-15T02:01:24;36.72;;;14.30;;
66112;SDS011;52893;52.870;5.822;2022-11-15T02:04:13;29.90;;;14.55;;
66112;SDS011;52893;52.870;5.822;2022-11-15T02:07:03;26.92;;;12.80;;
66112;SDS011;52893;52.870;5.822;2022-11-15T02:09:50;26.95;;;13.43;;
66112;SDS011;52893;52.870;5.822;2022-11-15T02:12:36;34.65;;;14.88;;
66112;SDS011;52893;52.870;5.822;2022-11-15T02:15:23;40.28;;;14.65;;
66112;SDS011;52893;52.870;5.822;2022-11-15T02:18:13;42.35;;;16.40;;
66112;SDS011;52893;52.870;5.822;2022-11-15T02:21:09;39.03;;;16.10;;
66112;SDS011;52893;52.870;5.822;2022-11-15T02:24:16;41.05;;;16.05;;
66112;SDS011;52893;52.870;5.822;2022-11-15T02:27:33;36.60;;;15.70;;
66112;SDS011;52893;52.870;5.822;2022-11-15T02:30:42;35.00;;;14.32;;
66112;SDS011;52893;52.870;5.822;2022-11-15T02:33:34;40.88;;;15.20;;
66112;SDS011;52893;52.870;5.822;2022-11-15T02:36:27;37.33;;;14.57;;
66112;SDS011;52893;52.870;5.822;2022-11-15T02:39:23;31.88;;;12.65;;
66112;SDS011;52893;52.870;5.822;2022-11-15T02:42:14;37.17;;;16.67;;
66112;SDS011;52893;52.870;5.822;2022-11-15T02:45:22;34.38;;;14.52;;
66112;SDS011;52893;52.870;5.822;2022-11-15T02:48:13;48.85;;;18.70;;
66112;SDS011;52893;52.870;5.822;2022-11-15T02:51:01;41.13;;;15.55;;
66112;SDS011;52893;52.870;5.822;2022-11-15T02:53:48;47.60;;;16.52;;
66112;SDS011;52893;52.870;5.822;2022-11-15T02:56:33;56.80;;;18.38;;
66112;SDS011;52893;52.870;5.822;2022-11-15T02:59:25;44.78;;;16.67;;
66112;SDS011;52893;52.870;5.822;2022-11-15T03:08:48;50.35;;;18.02;;
66112;SDS011;52893;52.870;5.822;2022-11-15T03:11:40;44.28;;;17.02;;
66112;SDS011;52893;52.870;5.822;2022-11-15T03:14:32;55.85;;;18.05;;
66112;SDS011;52893;52.870;5.822;2022-11-15T03:17:22;48.97;;;15.32;;
66112;SDS011;52893;52.870;5.822;2022-11-15T03:20:11;49.67;;;18.20;;
66112;SDS011;52893;52.870;5.822;2022-11-15T03:23:01;52.70;;;18.08;;
66112;SDS011;52893;52.870;5.822;2022-11-15T03:25:50;47.92;;;17.50;;
66112;SDS011;52893;52.870;5.822;2022-11-15T03:28:37;52.83;;;17.38;;
66112;SDS011;52893;52.870;5.822;2022-11-15T03:31:27;38.67;;;14.00;;
66112;SDS011;52893;52.870;5.822;2022-11-15T03:34:34;39.58;;;14.90;;
66112;SDS011;52893;52.870;5.822;2022-11-15T03:37:24;44.17;;;14.23;;
66112;SDS011;52893;52.870;5.822;2022-11-15T03:40:22;42.47;;;13.63;;
66112;SDS011;52893;52.870;5.822;2022-11-15T03:43:15;44.22;;;15.50;;
66112;SDS011;52893;52.870;5.822;2022-11-15T03:46:13;40.90;;;14.48;;
66112;SDS011;52893;52.870;5.822;2022-11-15T03:49:03;43.13;;;16.13;;
66112;SDS011;52893;52.870;5.822;2022-11-15T03:51:56;48.10;;;16.63;;
66112;SDS011;52893;52.870;5.822;2022-11-15T03:54:49;52.10;;;17.73;;
66112;SDS011;52893;52.870;5.822;2022-11-15T03:57:37;38.83;;;14.15;;
66112;SDS011;52893;52.870;5.822;2022-11-15T04:00:23;48.45;;;16.15;;
66112;SDS011;52893;52.870;5.822;2022-11-15T04:03:09;46.22;;;13.77;;
66112;SDS011;52893;52.870;5.822;2022-11-15T04:05:54;36.47;;;13.73;;
66112;SDS011;52893;52.870;5.822;2022-11-15T04:08:40;53.70;;;15.52;;
66112;SDS011;52893;52.870;5.822;2022-11-15T04:11:26;42.70;;;14.35;;
66112;SDS011;52893;52.870;5.822;2022-11-15T04:14:13;40.10;;;14.95;;
66112;SDS011;52893;52.870;5.822;2022-11-15T04:16:58;47.72;;;15.82;;
66112;SDS011;52893;52.870;5.822;2022-11-15T04:19:44;46.75;;;15.77;;
66112;SDS011;52893;52.870;5.822;2022-11-15T04:25:52;28.65;;;10.50;;
66112;SDS011;52893;52.870;5.822;2022-11-15T04:28:39;39.63;;;15.38;;
66112;SDS011;52893;52.870;5.822;2022-11-15T04:31:54;52.17;;;17.40;;
66112;SDS011;52893;52.870;5.822;2022-11-15T04:34:39;36.67;;;13.10;;
66112;SDS011;52893;52.870;5.822;2022-11-15T04:37:25;39.83;;;13.93;;
66112;SDS011;52893;52.870;5.822;2022-11-15T04:40:11;31.83;;;13.55;;
66112;SDS011;52893;52.870;5.822;2022-11-15T04:42:57;47.42;;;16.13;;
66112;SDS011;52893;52.870;5.822;2022-11-15T04:45:43;44.47;;;16.67;;
66112;SDS011;52893;52.870;5.822;2022-11-15T04:48:30;42.15;;;16.17;;
66112;SDS011;52893;52.870;5.822;2022-11-15T04:51:16;44.03;;;16.65;;
66112;SDS011;52893;52.870;5.822;2022-11-15T04:54:01;43.42;;;16.75;;
66112;SDS011;52893;52.870;5.822;2022-11-15T04:56:47;56.50;;;19.27;;
66112;SDS011;52893;52.870;5.822;2022-11-15T04:59:33;53.78;;;18.65;;
66112;SDS011;52893;52.870;5.822;2022-11-15T05:02:19;34.42;;;12.80;;
66112;SDS011;52893;52.870;5.822;2022-11-15T05:05:07;38.25;;;15.60;;
66112;SDS011;52893;52.870;5.822;2022-11-15T05:07:52;48.05;;;18.63;;
66112;SDS011;52893;52.870;5.822;2022-11-15T05:10:37;48.20;;;18.75;;
66112;SDS011;52893;52.870;5.822;2022-11-15T05:13:23;50.70;;;18.15;;
66112;SDS011;52893;52.870;5.822;2022-11-15T05:16:09;40.50;;;16.08;;
66112;SDS011;52893;52.870;5.822;2022-11-15T05:18:54;52.42;;;17.98;;
66112;SDS011;52893;52.870;5.822;2022-11-15T05:21:42;58.35;;;20.75;;
66112;SDS011;52893;52.870;5.822;2022-11-15T05:24:28;63.45;;;21.67;;
66112;SDS011;52893;52.870;5.822;2022-11-15T05:27:14;51.75;;;20.77;;
66112;SDS011;52893;52.870;5.822;2022-11-15T05:29:59;57.15;;;21.42;;
66112;SDS011;52893;52.870;5.822;2022-11-15T05:32:45;52.78;;;18.98;;
66112;SDS011;52893;52.870;5.822;2022-11-15T05:35:31;60.88;;;21.15;;
66112;SDS011;52893;52.870;5.822;2022-11-15T05:38:22;48.92;;;19.65;;
66112;SDS011;52893;52.870;5.822;2022-11-15T05:41:08;56.85;;;20.85;;
66112;SDS011;52893;52.870;5.822;2022-11-15T05:43:55;44.60;;;18.20;;
66112;SDS011;52893;52.870;5.822;2022-11-15T05:46:41;59.20;;;19.77;;
66112;SDS011;52893;52.870;5.822;2022-11-15T05:49:29;46.53;;;17.15;;
66112;SDS011;52893;52.870;5.822;2022-11-15T05:52:18;48.80;;;19.08;;
66112;SDS011;52893;52.870;5.822;2022-11-15T05:55:09;65.90;;;21.50;;
66112;SDS011;52893;52.870;5.822;2022-11-15T05:57:55;49.65;;;18.15;;
66112;SDS011;52893;52.870;5.822;2022-11-15T06:00:41;73.05;;;23.85;;
66112;SDS011;52893;52.870;5.822;2022-11-15T06:03:27;51.58;;;18.77;;
66112;SDS011;52893;52.870;5.822;2022-11-15T06:06:13;72.90;;;24.95;;
66112;SDS011;52893;52.870;5.822;2022-11-15T06:08:58;64.47;;;21.67;;
66112;SDS011;52893;52.870;5.822;2022-11-15T06:11:46;66.18;;;23.35;;
66112;SDS011;52893;52.870;5.822;2022-11-15T06:14:32;71.82;;;24.23;;
66112;SDS011;52893;52.870;5.822;2022-11-15T06:17:17;98.82;;;27.58;;
66112;SDS011;52893;52.870;5.822;2022-11-15T06:20:03;94.45;;;25.20;;
66112;SDS011;52893;52.870;5.822;2022-11-15T06:22:49;69.28;;;22.83;;
66112;SDS011;52893;52.870;5.822;2022-11-15T06:25:35;75.10;;;23.80;;
66112;SDS011;52893;52.870;5.822;2022-11-15T06:28:22;63.22;;;21.63;;
66112;SDS011;52893;52.870;5.822;2022-11-15T06:31:08;66.20;;;21.63;;
66112;SDS011;52893;52.870;5.822;2022-11-15T06:33:56;69.07;;;24.45;;
66112;SDS011;52893;52.870;5.822;2022-11-15T06:36:42;90.82;;;25.90;;
66112;SDS011;52893;52.870;5.822;2022-11-15T06:39:27;72.78;;;25.35;;
66112;SDS011;52893;52.870;5.822;2022-11-15T06:42:13;64.88;;;24.42;;
66112;SDS011;52893;52.870;5.822;2022-11-15T06:45:01;73.18;;;25.02;;
66112;SDS011;52893;52.870;5.822;2022-11-15T06:47:46;61.47;;;21.95;;
66112;SDS011;52893;52.870;5.822;2022-11-15T06:50:32;68.45;;;21.83;;
66112;SDS011;52893;52.870;5.822;2022-11-15T06:53:18;54.00;;;21.10;;
66112;SDS011;52893;52.870;5.822;2022-11-15T06:56:05;58.80;;;20.08;;
66112;SDS011;52893;52.870;5.822;2022-11-15T06:58:51;63.90;;;22.02;;
66112;SDS011;52893;52.870;5.822;2022-11-15T07:01:39;59.38;;;22.42;;
66112;SDS011;52893;52.870;5.822;2022-11-15T07:04:25;59.20;;;21.65;;
66112;SDS011;52893;52.870;5.822;2022-11-15T07:07:10;60.78;;;22.58;;
66112;SDS011;52893;52.870;5.822;2022-11-15T07:09:56;46.35;;;17.60;;
66112;SDS011;52893;52.870;5.822;2022-11-15T07:12:45;46.42;;;18.75;;
66112;SDS011;52893;52.870;5.822;2022-11-15T07:15:32;48.78;;;22.23;;
66112;SDS011;52893;52.870;5.822;2022-11-15T07:18:19;57.83;;;21.75;;
66112;SDS011;52893;52.870;5.822;2022-11-15T07:21:06;46.95;;;19.83;;
66112;SDS011;52893;52.870;5.822;2022-11-15T07:23:52;57.55;;;22.85;;
66112;SDS011;52893;52.870;5.822;2022-11-15T07:26:38;54.10;;;22.27;;
66112;SDS011;52893;52.870;5.822;2022-11-15T07:29:24;61.08;;;24.55;;
66112;SDS011;52893;52.870;5.822;2022-11-15T07:32:10;50.38;;;21.15;;
66112;SDS011;52893;52.870;5.822;2022-11-15T07:34:57;58.00;;;24.00;;
66112;SDS011;52893;52.870;5.822;2022-11-15T07:37:43;37.85;;;18.35;;
66112;SDS011;52893;52.870;5.822;2022-11-15T07:40:29;59.65;;;23.60;;
66112;SDS011;52893;52.870;5.822;2022-11-15T07:43:16;57.35;;;23.48;;
66112;SDS011;52893;52.870;5.822;2022-11-15T07:46:04;49.25;;;23.33;;
66112;SDS011;52893;52.870;5.822;2022-11-15T07:48:53;53.10;;;22.35;;
66112;SDS011;52893;52.870;5.822;2022-11-15T07:51:40;54.35;;;25.48;;
66112;SDS011;52893;52.870;5.822;2022-11-15T07:54:26;62.97;;;25.52;;
66112;SDS011;52893;52.870;5.822;2022-11-15T07:57:12;49.67;;;21.75;;
66112;SDS011;52893;52.870;5.822;2022-11-15T07:59:57;53.85;;;24.13;;
66112;SDS011;52893;52.870;5.822;2022-11-15T08:02:43;47.15;;;20.27;;
66112;SDS011;52893;52.870;5.822;2022-11-15T08:05:29;47.10;;;20.83;;
66112;SDS011;52893;52.870;5.822;2022-11-15T08:08:16;57.63;;;22.90;;
66112;SDS011;52893;52.870;5.822;2022-11-15T08:11:02;50.65;;;21.85;;
66112;SDS011;52893;52.870;5.822;2022-11-15T08:13:48;60.58;;;22.60;;
66112;SDS011;52893;52.870;5.822;2022-11-15T08:16:33;57.03;;;22.83;;
66112;SDS011;52893;52.870;5.822;2022-11-15T08:19:19;55.25;;;21.23;;
66112;SDS011;52893;52.870;5.822;2022-11-15T08:22:05;48.10;;;20.80;;
66112;SDS011;52893;52.870;5.822;2022-11-15T08:24:52;47.28;;;19.67;;
66112;SDS011;52893;52.870;5.822;2022-11-15T08:27:37;43.20;;;18.30;;
66112;SDS011;52893;52.870;5.822;2022-11-15T08:30:23;54.67;;;21.45;;
66112;SDS011;52893;52.870;5.822;2022-11-15T08:33:10;45.70;;;18.45;;
66112;SDS011;52893;52.870;5.822;2022-11-15T08:35:57;32.47;;;14.27;;
66112;SDS011;52893;52.870;5.822;2022-11-15T08:38:43;46.45;;;19.13;;
66112;SDS011;52893;52.870;5.822;2022-11-15T08:41:31;41.15;;;20.08;;
66112;SDS011;52893;52.870;5.822;2022-11-15T08:44:19;48.17;;;20.83;;
66112;SDS011;52893;52.870;5.822;2022-11-15T08:47:04;54.17;;;21.67;;
66112;SDS011;52893;52.870;5.822;2022-11-15T08:49:50;47.45;;;21.13;;
66112;SDS011;52893;52.870;5.822;2022-11-15T08:52:36;51.15;;;22.15;;
66112;SDS011;52893;52.870;5.822;2022-11-15T08:55:22;50.72;;;21.90;;
66112;SDS011;52893;52.870;5.822;2022-11-15T08:58:09;50.83;;;22.83;;
66112;SDS011;52893;52.870;5.822;2022-11-15T09:00:54;52.33;;;23.83;;
66112;SDS011;52893;52.870;5.822;2022-11-15T09:03:40;50.78;;;21.58;;
66112;SDS011;52893;52.870;5.822;2022-11-15T09:06:26;47.85;;;21.27;;
66112;SDS011;52893;52.870;5.822;2022-11-15T09:09:11;45.13;;;20.95;;
66112;SDS011;52893;52.870;5.822;2022-11-15T09:11:57;58.55;;;25.63;;
66112;SDS011;52893;52.870;5.822;2022-11-15T09:14:44;56.65;;;22.38;;
66112;SDS011;52893;52.870;5.822;2022-11-15T09:17:30;57.90;;;23.45;;
66112;SDS011;52893;52.870;5.822;2022-11-15T09:20:16;64.20;;;26.25;;
66112;SDS011;52893;52.870;5.822;2022-11-15T09:23:02;67.85;;;24.48;;
66112;SDS011;52893;52.870;5.822;2022-11-15T09:25:49;58.85;;;24.25;;
66112;SDS011;52893;52.870;5.822;2022-11-15T09:28:35;54.67;;;24.55;;
66112;SDS011;52893;52.870;5.822;2022-11-15T09:31:23;64.13;;;28.02;;
66112;SDS011;52893;52.870;5.822;2022-11-15T09:34:10;39.90;;;18.75;;
66112;SDS011;52893;52.870;5.822;2022-11-15T09:36:56;43.92;;;20.40;;
66112;SDS011;52893;52.870;5.822;2022-11-15T09:39:42;57.75;;;23.20;;
66112;SDS011;52893;52.870;5.822;2022-11-15T09:42:32;39.63;;;18.13;;
66112;SDS011;52893;52.870;5.822;2022-11-15T09:45:31;49.08;;;20.02;;
66112;SDS011;52893;52.870;5.822;2022-11-15T09:48:33;51.30;;;23.08;;
66112;SDS011;52893;52.870;5.822;2022-11-15T09:51:38;48.33;;;22.20;;
66112;SDS011;52893;52.870;5.822;2022-11-15T09:54:13;53.35;;;24.23;;
66112;SDS011;52893;52.870;5.822;2022-11-15T09:56:48;59.78;;;28.30;;
66112;SDS011;52893;52.870;5.822;2022-11-15T09:59:21;55.65;;;25.38;;
66112;SDS011;52893;52.870;5.822;2022-11-15T10:01:56;41.95;;;20.35;;
66112;SDS011;52893;52.870;5.822;2022-11-15T10:04:37;39.42;;;20.75;;
66112;SDS011;52893;52.870;5.822;2022-11-15T10:07:06;52.28;;;23.70;;
66112;SDS011;52893;52.870;5.822;2022-11-15T10:09:42;42.45;;;18.38;;
66112;SDS011;52893;52.870;5.822;2022-11-15T10:12:14;42.50;;;20.65;;
66112;SDS011;52893;52.870;5.822;2022-11-15T10:14:42;38.30;;;19.27;;
66112;SDS011;52893;52.870;5.822;2022-11-15T10:17:19;34.28;;;18.13;;
66112;SDS011;52893;52.870;5.822;2022-11-15T10:20:12;42.28;;;22.33;;
66112;SDS011;52893;52.870;5.822;2022-11-15T10:22:46;35.90;;;18.50;;
66112;SDS011;52893;52.870;5.822;2022-11-15T10:25:18;33.92;;;18.25;;
66112;SDS011;52893;52.870;5.822;2022-11-15T10:27:56;26.55;;;15.43;;
66112;SDS011;52893;52.870;5.822;2022-11-15T10:30:30;24.40;;;13.40;;
66112;SDS011;52893;52.870;5.822;2022-11-15T10:33:00;27.25;;;14.20;;
66112;SDS011;52893;52.870;5.822;2022-11-15T10:35:40;30.17;;;12.95;;
66112;SDS011;52893;52.870;5.822;2022-11-15T10:38:07;27.05;;;16.23;;
66112;SDS011;52893;52.870;5.822;2022-11-15T10:40:37;39.10;;;17.63;;
66112;SDS011;52893;52.870;5.822;2022-11-15T10:43:13;37.88;;;19.27;;
66112;SDS011;52893;52.870;5.822;2022-11-15T10:45:43;49.00;;;19.42;;
66112;SDS011;52893;52.870;5.822;2022-11-15T10:48:19;30.35;;;17.10;;
66112;SDS011;52893;52.870;5.822;2022-11-15T10:50:53;49.58;;;22.33;;
66112;SDS011;52893;52.870;5.822;2022-11-15T10:53:23;29.40;;;15.52;;
66112;SDS011;52893;52.870;5.822;2022-11-15T10:55:55;27.05;;;14.95;;
66112;SDS011;52893;52.870;5.822;2022-11-15T10:58:31;21.73;;;12.80;;
66112;SDS011;52893;52.870;5.822;2022-11-15T11:01:14;33.08;;;18.35;;
66112;SDS011;52893;52.870;5.822;2022-11-15T11:03:43;29.55;;;15.63;;
66112;SDS011;52893;52.870;5.822;2022-11-15T11:06:13;33.10;;;14.90;;
66112;SDS011;52893;52.870;5.822;2022-11-15T11:08:53;30.40;;;13.98;;
66112;SDS011;52893;52.870;5.822;2022-11-15T11:11:22;25.00;;;14.05;;
66112;SDS011;52893;52.870;5.822;2022-11-15T11:13:49;31.00;;;13.38;;
66112;SDS011;52893;52.870;5.822;2022-11-15T11:16:22;24.83;;;12.40;;
66112;SDS011;52893;52.870;5.822;2022-11-15T11:19:02;21.65;;;10.88;;
66112;SDS011;52893;52.870;5.822;2022-11-15T11:21:46;24.75;;;13.02;;
66112;SDS011;52893;52.870;5.822;2022-11-15T11:24:19;26.52;;;14.88;;
66112;SDS011;52893;52.870;5.822;2022-11-15T11:26:57;22.23;;;12.02;;
66112;SDS011;52893;52.870;5.822;2022-11-15T11:29:38;21.40;;;10.75;;
66112;SDS011;52893;52.870;5.822;2022-11-15T11:32:21;27.15;;;11.73;;
66112;SDS011;52893;52.870;5.822;2022-11-15T11:34:57;22.70;;;12.95;;
66112;SDS011;52893;52.870;5.822;2022-11-15T11:37:34;17.63;;;11.70;;
66112;SDS011;52893;52.870;5.822;2022-11-15T11:40:16;27.33;;;14.68;;
66112;SDS011;52893;52.870;5.822;2022-11-15T11:42:55;19.20;;;10.00;;
66112;SDS011;52893;52.870;5.822;2022-11-15T11:45:30;13.82;;;7.97;;
66112;SDS011;52893;52.870;5.822;2022-11-15T11:48:20;14.07;;;5.28;;
66112;SDS011;52893;52.870;5.822;2022-11-15T11:50:58;9.50;;;4.15;;
66112;SDS011;52893;52.870;5.822;2022-11-15T11:53:38;5.22;;;3.90;;
66112;SDS011;52893;52.870;5.822;2022-11-15T11:56:12;7.35;;;4.00;;
66112;SDS011;52893;52.870;5.822;2022-11-15T11:58:45;5.90;;;2.78;;
66112;SDS011;52893;52.870;5.822;2022-11-15T12:01:14;4.88;;;2.92;;
66112;SDS011;52893;52.870;5.822;2022-11-15T12:03:45;7.15;;;3.47;;
66112;SDS011;52893;52.870;5.822;2022-11-15T12:06:18;4.43;;;2.70;;
66112;SDS011;52893;52.870;5.822;2022-11-15T12:08:56;8.32;;;4.53;;
66112;SDS011;52893;52.870;5.822;2022-11-15T12:11:28;6.38;;;3.30;;
66112;SDS011;52893;52.870;5.822;2022-11-15T12:13:58;9.05;;;3.35;;
66112;SDS011;52893;52.870;5.822;2022-11-15T12:16:28;9.52;;;2.88;;
66112;SDS011;52893;52.870;5.822;2022-11-15T12:18:59;7.15;;;2.53;;
66112;SDS011;52893;52.870;5.822;2022-11-15T12:21:34;4.15;;;2.40;;
66112;SDS011;52893;52.870;5.822;2022-11-15T12:24:08;8.52;;;2.92;;
66112;SDS011;52893;52.870;5.822;2022-11-15T12:26:44;6.15;;;2.72;;
66112;SDS011;52893;52.870;5.822;2022-11-15T12:29:15;7.60;;;2.60;;
66112;SDS011;52893;52.870;5.822;2022-11-15T12:31:47;6.32;;;2.15;;
66112;SDS011;52893;52.870;5.822;2022-11-15T12:34:29;4.53;;;2.30;;
66112;SDS011;52893;52.870;5.822;2022-11-15T12:37:02;3.60;;;2.47;;
66112;SDS011;52893;52.870;5.822;2022-11-15T12:40:17;4.18;;;2.47;;
66112;SDS011;52893;52.870;5.822;2022-11-15T12:42:59;5.57;;;2.78;;
66112;SDS011;52893;52.870;5.822;2022-11-15T12:45:29;6.40;;;2.58;;
66112;SDS011;52893;52.870;5.822;2022-11-15T12:50:58;4.75;;;2.20;;
66112;SDS011;52893;52.870;5.822;2022-11-15T12:53:28;4.07;;;2.00;;
66112;SDS011;52893;52.870;5.822;2022-11-15T12:56:09;6.55;;;2.35;;
66112;SDS011;52893;52.870;5.822;2022-11-15T12:58:49;2.45;;;1.98;;
66112;SDS011;52893;52.870;5.822;2022-11-15T13:06:53;3.08;;;2.33;;
66112;SDS011;52893;52.870;5.822;2022-11-15T13:15:31;3.30;;;1.95;;
66112;SDS011;52893;52.870;5.822;2022-11-15T13:21:01;6.05;;;3.47;;
66112;SDS011;52893;52.870;5.822;2022-11-15T13:23:52;3.90;;;2.50;;
66112;SDS011;52893;52.870;5.822;2022-11-15T13:26:22;4.03;;;2.40;;
66112;SDS011;52893;52.870;5.822;2022-11-15T13:28:50;5.38;;;2.55;;
66112;SDS011;52893;52.870;5.822;2022-11-15T13:31:24;6.82;;;2.50;;
66112;SDS011;52893;52.870;5.822;2022-11-15T13:33:55;4.28;;;2.30;;
66112;SDS011;52893;52.870;5.822;2022-11-15T13:36:25;4.68;;;2.60;;
66112;SDS011;52893;52.870;5.822;2022-11-15T13:38:56;5.78;;;2.67;;
66112;SDS011;52893;52.870;5.822;2022-11-15T13:41:27;3.05;;;1.63;;
66112;SDS011;52893;52.870;5.822;2022-11-15T13:43:56;3.47;;;1.98;;
66112;SDS011;52893;52.870;5.822;2022-11-15T13:46:24;2.58;;;1.67;;
66112;SDS011;52893;52.870;5.822;2022-11-15T13:48:53;4.25;;;2.25;;
66112;SDS011;52893;52.870;5.822;2022-11-15T13:51:24;6.88;;;2.47;;
66112;SDS011;52893;52.870;5.822;2022-11-15T13:53:56;3.72;;;1.80;;
66112;SDS011;52893;52.870;5.822;2022-11-15T13:56:27;6.45;;;2.00;;
66112;SDS011;52893;52.870;5.822;2022-11-15T13:58:56;4.28;;;2.58;;
66112;SDS011;52893;52.870;5.822;2022-11-15T14:01:23;6.75;;;2.83;;
66112;SDS011;52893;52.870;5.822;2022-11-15T14:03:55;6.93;;;3.47;;
66112;SDS011;52893;52.870;5.822;2022-11-15T14:06:25;6.88;;;2.40;;
66112;SDS011;52893;52.870;5.822;2022-11-15T14:08:58;5.03;;;2.40;;
66112;SDS011;52893;52.870;5.822;2022-11-15T14:11:52;2.90;;;2.00;;
66112;SDS011;52893;52.870;5.822;2022-11-15T14:14:21;2.58;;;1.85;;
66112;SDS011;52893;52.870;5.822;2022-11-15T14:16:49;3.95;;;1.65;;
66112;SDS011;52893;52.870;5.822;2022-11-15T14:19:36;3.60;;;1.40;;
66112;SDS011;52893;52.870;5.822;2022-11-15T14:22:09;1.90;;;1.40;;
66112;SDS011;52893;52.870;5.822;2022-11-15T14:24:46;3.53;;;1.70;;
66112;SDS011;52893;52.870;5.822;2022-11-15T14:27:32;3.28;;;1.75;;
66112;SDS011;52893;52.870;5.822;2022-11-15T14:30:00;6.78;;;1.55;;
66112;SDS011;52893;52.870;5.822;2022-11-15T14:32:28;6.00;;;1.88;;
66112;SDS011;52893;52.870;5.822;2022-11-15T14:34:56;4.88;;;1.55;;
66112;SDS011;52893;52.870;5.822;2022-11-15T14:37:25;2.95;;;1.40;;
66112;SDS011;52893;52.870;5.822;2022-11-15T14:39:54;6.38;;;1.48;;
66112;SDS011;52893;52.870;5.822;2022-11-15T14:42:22;4.57;;;1.60;;
66112;SDS011;52893;52.870;5.822;2022-11-15T14:44:51;3.35;;;1.35;;
66112;SDS011;52893;52.870;5.822;2022-11-15T14:47:18;4.45;;;1.35;;
66112;SDS011;52893;52.870;5.822;2022-11-15T14:49:45;5.43;;;1.70;;
66112;SDS011;52893;52.870;5.822;2022-11-15T14:52:25;6.07;;;1.85;;
66112;SDS011;52893;52.870;5.822;2022-11-15T14:54:54;7.22;;;2.70;;
66112;SDS011;52893;52.870;5.822;2022-11-15T14:57:21;5.88;;;1.77;;
66112;SDS011;52893;52.870;5.822;2022-11-15T14:59:50;3.25;;;1.20;;
66112;SDS011;52893;52.870;5.822;2022-11-15T15:02:18;2.25;;;1.00;;
66112;SDS011;52893;52.870;5.822;2022-11-15T15:04:47;2.25;;;1.23;;
66112;SDS011;52893;52.870;5.822;2022-11-15T15:07:14;6.10;;;1.98;;
66112;SDS011;52893;52.870;5.822;2022-11-15T15:09:42;6.10;;;1.20;;
66112;SDS011;52893;52.870;5.822;2022-11-15T15:12:12;3.40;;;1.00;;
66112;SDS011;52893;52.870;5.822;2022-11-15T15:14:42;2.20;;;1.20;;
66112;SDS011;52893;52.870;5.822;2022-11-15T15:17:11;6.03;;;1.75;;
66112;SDS011;52893;52.870;5.822;2022-11-15T15:19:38;2.88;;;1.20;;
66112;SDS011;52893;52.870;5.822;2022-11-15T15:22:06;5.47;;;1.50;;
66112;SDS011;52893;52.870;5.822;2022-11-15T15:24:39;4.65;;;1.17;;
66112;SDS011;52893;52.870;5.822;2022-11-15T15:27:06;6.72;;;1.17;;
66112;SDS011;52893;52.870;5.822;2022-11-15T15:29:34;4.10;;;1.50;;
66112;SDS011;52893;52.870;5.822;2022-11-15T15:32:01;3.03;;;1.13;;
66112;SDS011;52893;52.870;5.822;2022-11-15T15:34:29;7.97;;;1.40;;
66112;SDS011;52893;52.870;5.822;2022-11-15T15:37:07;3.35;;;1.20;;
66112;SDS011;52893;52.870;5.822;2022-11-15T15:39:35;15.50;;;1.45;;
66112;SDS011;52893;52.870;5.822;2022-11-15T15:42:02;3.30;;;1.08;;
66112;SDS011;52893;52.870;5.822;2022-11-15T15:44:30;5.40;;;1.38;;
66112;SDS011;52893;52.870;5.822;2022-11-15T15:46:57;9.13;;;1.30;;
66112;SDS011;52893;52.870;5.822;2022-11-15T15:49:24;3.17;;;1.30;;
66112;SDS011;52893;52.870;5.822;2022-11-15T15:51:53;3.58;;;1.35;;
66112;SDS011;52893;52.870;5.822;2022-11-15T15:54:20;3.42;;;1.40;;
66112;SDS011;52893;52.870;5.822;2022-11-15T15:56:47;4.85;;;1.63;;
66112;SDS011;52893;52.870;5.822;2022-11-15T15:59:14;4.43;;;1.40;;
66112;SDS011;52893;52.870;5.822;2022-11-15T16:01:41;9.05;;;1.70;;
66112;SDS011;52893;52.870;5.822;2022-11-15T16:04:08;6.07;;;1.92;;
66112;SDS011;52893;52.870;5.822;2022-11-15T16:06:36;2.65;;;1.50;;
66112;SDS011;52893;52.870;5.822;2022-11-15T16:09:06;2.72;;;1.38;;
66112;SDS011;52893;52.870;5.822;2022-11-15T16:11:35;4.63;;;2.20;;
66112;SDS011;52893;52.870;5.822;2022-11-15T16:14:02;14.18;;;2.10;;
66112;SDS011;52893;52.870;5.822;2022-11-15T16:16:29;7.20;;;2.85;;
66112;SDS011;52893;52.870;5.822;2022-11-15T16:18:56;3.33;;;2.05;;
66112;SDS011;52893;52.870;5.822;2022-11-15T16:21:24;4.75;;;2.20;;